sensor_id;sensor_type;location;lat;lon;timestamp;pressure;altitude;pressure_sealevel;temperature;humidity
19600;BME280;9947;57.722;12.012;2023-02-19T00:00:01;100480.38;;;-0.06;100.00
19600;BME280;9947;57.722;12.012;2023-02-19T00:02:35;100473.69;;;-0.16;100.00
19600;BME280;9947;57.722;12.012;2023-02-19T00:05:03;100479.28;;;-0.24;100.00
19600;BME280;9947;57.722;12.012;2023-02-19T00:07:38;100480.91;;;-0.20;100.00
19600;BME280;9947;57.722;12.012;2023-02-19T00:10:08;100479.78;;;-0.14;100.00
19600;BME280;9947;57.722;12.012;2023-02-19T00:12:41;100478.19;;;-0.18;100.00
19600;BME280;9947;57.722;12.012;2023-02-19T00:15:10;100481.75;;;-0.19;100.00
19600;BME280;9947;57.722;12.012;2023-02-19T00:17:43;100478.66;;;-0.32;100.00
19600;BME280;9947;57.722;12.012;2023-02-19T00:20:17;100483.28;;;-0.37;100.00
19600;BME280;9947;57.722;12.012;2023-02-19T00:22:51;100478.47;;;-0.51;100.00
19600;BME280;9947;57.722;12.012;2023-02-19T00:25:18;100479.59;;;-0.58;100.00
19600;BME280;9947;57.722;12.012;2023-02-19T00:27:52;100478.19;;;-0.68;100.00
19600;BME280;9947;57.722;12.012;2023-02-19T00:30:21;100482.91;;;-0.76;100.00
19600;BME280;9947;57.722;12.012;2023-02-19T00:32:57;100486.97;;;-0.66;100.00
19600;BME280;9947;57.722;12.012;2023-02-19T00:35:24;100477.34;;;-0.69;100.00
19600;BME280;9947;57.722;12.012;2023-02-19T00:37:58;100481.06;;;-0.74;100.00
19600;BME280;9947;57.722;12.012;2023-02-19T00:40:31;100480.16;;;-0.73;100.00
19600;BME280;9947;57.722;12.012;2023-02-19T00:43:05;100486.97;;;-0.66;100.00
19600;BME280;9947;57.722;12.012;2023-02-19T00:45:47;100484.75;;;-0.53;100.00
19600;BME280;9947;57.722;12.012;2023-02-19T00:48:20;100486.97;;;-0.41;100.00
19600;BME280;9947;57.722;12.012;2023-02-19T00:50:47;100485.25;;;-0.42;100.00
19600;BME280;9947;57.722;12.012;2023-02-19T00:53:21;100477.63;;;-0.53;100.00
19600;BME280;9947;57.722;12.012;2023-02-19T00:55:54;100487.84;;;-0.41;100.00
19600;BME280;9947;57.722;12.012;2023-02-19T00:58:22;100490.38;;;-0.38;100.00
19600;BME280;9947;57.722;12.012;2023-02-19T01:00:50;100494.88;;;-0.40;100.00
19600;BME280;9947;57.722;12.012;2023-02-19T01:03:25;100492.13;;;-0.37;100.00
19600;BME280;9947;57.722;12.012;2023-02-19T01:05:52;100487.63;;;-0.35;100.00
19600;BME280;9947;57.722;12.012;2023-02-19T01:08:26;100485.78;;;-0.33;100.00
19600;BME280;9947;57.722;12.012;2023-02-19T01:10:56;100485.03;;;-0.36;100.00
19600;BME280;9947;57.722;12.012;2023-02-19T01:13:30;100485.19;;;-0.41;100.00
19600;BME280;9947;57.722;12.012;2023-02-19T01:16:06;100491.59;;;-0.46;100.00
19600;BME280;9947;57.722;12.012;2023-02-19T01:18:49;100487.50;;;-0.56;100.00
19600;BME280;9947;57.722;12.012;2023-02-19T01:21:23;100484.72;;;-0.52;100.00
19600;BME280;9947;57.722;12.012;2023-02-19T01:23:52;100488.53;;;-0.60;100.00
19600;BME280;9947;57.722;12.012;2023-02-19T01:26:27;100491.47;;;-0.68;100.00
19600;BME280;9947;57.722;12.012;2023-02-19T01:29:01;100487.44;;;-0.80;100.00
19600;BME280;9947;57.722;12.012;2023-02-19T01:31:38;100484.22;;;-0.89;100.00
19600;BME280;9947;57.722;12.012;2023-02-19T01:34:09;100486.44;;;-1.02;100.00
19600;BME280;9947;57.722;12.012;2023-02-19T01:36:42;100496.91;;;-0.98;100.00
19600;BME280;9947;57.722;12.012;2023-02-19T01:39:17;100495.94;;;-0.95;100.00
19600;BME280;9947;57.722;12.012;2023-02-19T01:41:44;100494.78;;;-0.88;100.00
19600;BME280;9947;57.722;12.012;2023-02-19T01:47:31;100493.16;;;-1.18;100.00
19600;BME280;9947;57.722;12.012;2023-02-19T01:49:58;100488.81;;;-1.21;100.00
19600;BME280;9947;57.722;12.012;2023-02-19T01:52:33;100494.38;;;-1.29;100.00
19600;BME280;9947;57.722;12.012;2023-02-19T01:55:02;100497.31;;;-1.38;100.00
19600;BME280;9947;57.722;12.012;2023-02-19T01:57:43;100505.13;;;-1.33;100.00
19600;BME280;9947;57.722;12.012;2023-02-19T02:00:14;100503.38;;;-1.34;100.00
19600;BME280;9947;57.722;12.012;2023-02-19T02:02:53;100498.84;;;-1.31;100.00
19600;BME280;9947;57.722;12.012;2023-02-19T02:05:30;100500.50;;;-1.27;100.00
19600;BME280;9947;57.722;12.012;2023-02-19T02:08:07;100512.09;;;-1.31;100.00
19600;BME280;9947;57.722;12.012;2023-02-19T02:10:51;100504.66;;;-1.46;100.00
19600;BME280;9947;57.722;12.012;2023-02-19T02:13:26;100508.47;;;-1.54;100.00
19600;BME280;9947;57.722;12.012;2023-02-19T02:16:01;100507.44;;;-1.50;100.00
19600;BME280;9947;57.722;12.012;2023-02-19T02:18:52;100507.72;;;-1.32;100.00
19600;BME280;9947;57.722;12.012;2023-02-19T02:21:41;100510.03;;;-1.21;100.00
19600;BME280;9947;57.722;12.012;2023-02-19T02:24:54;100510.66;;;-1.13;100.00
19600;BME280;9947;57.722;12.012;2023-02-19T02:27:40;100512.13;;;-1.04;100.00
19600;BME280;9947;57.722;12.012;2023-02-19T02:30:16;100510.66;;;-1.13;100.00
19600;BME280;9947;57.722;12.012;2023-02-19T02:33:01;100514.06;;;-1.09;100.00
19600;BME280;9947;57.722;12.012;2023-02-19T02:35:40;100519.59;;;-1.15;100.00
19600;BME280;9947;57.722;12.012;2023-02-19T02:38:15;100524.31;;;-1.25;100.00
19600;BME280;9947;57.722;12.012;2023-02-19T02:40:51;100523.09;;;-1.43;100.00
19600;BME280;9947;57.722;12.012;2023-02-19T02:43:20;100533.34;;;-1.60;100.00
19600;BME280;9947;57.722;12.012;2023-02-19T02:46:01;100537.88;;;-1.64;100.00
19600;BME280;9947;57.722;12.012;2023-02-19T02:48:33;100530.66;;;-1.59;100.00
19600;BME280;9947;57.722;12.012;2023-02-19T02:51:15;100532.03;;;-1.45;100.00
19600;BME280;9947;57.722;12.012;2023-02-19T02:53:52;100540.25;;;-1.54;100.00
19600;BME280;9947;57.722;12.012;2023-02-19T02:56:45;100537.38;;;-1.47;100.00
19600;BME280;9947;57.722;12.012;2023-02-19T02:59:17;100547.63;;;-1.36;100.00
19600;BME280;9947;57.722;12.012;2023-02-19T03:01:54;100544.41;;;-1.46;100.00
19600;BME280;9947;57.722;12.012;2023-02-19T03:04:44;100546.56;;;-1.29;100.00
19600;BME280;9947;57.722;12.012;2023-02-19T03:07:38;100545.72;;;-1.31;100.00
19600;BME280;9947;57.722;12.012;2023-02-19T03:10:14;100545.72;;;-1.31;100.00
19600;BME280;9947;57.722;12.012;2023-02-19T03:12:50;100552.03;;;-1.35;100.00
19600;BME280;9947;57.722;12.012;2023-02-19T03:15:39;100565.38;;;-1.38;100.00
19600;BME280;9947;57.722;12.012;2023-02-19T03:18:36;100569.09;;;-1.44;100.00
19600;BME280;9947;57.722;12.012;2023-02-19T03:21:31;100576.03;;;-1.40;100.00
19600;BME280;9947;57.722;12.012;2023-02-19T03:24:09;100575.13;;;-1.39;100.00
19600;BME280;9947;57.722;12.012;2023-02-19T03:27:03;100576.84;;;-1.38;100.00
19600;BME280;9947;57.722;12.012;2023-02-19T03:29:31;100581.38;;;-1.41;100.00
19600;BME280;9947;57.722;12.012;2023-02-19T03:32:17;100577.19;;;-1.48;100.00
19600;BME280;9947;57.722;12.012;2023-02-19T03:34:51;100585.34;;;-1.54;100.00
19600;BME280;9947;57.722;12.012;2023-02-19T03:37:29;100590.38;;;-1.76;100.00
19600;BME280;9947;57.722;12.012;2023-02-19T03:39:59;100587.31;;;-1.63;100.00
19600;BME280;9947;57.722;12.012;2023-02-19T03:42:38;100588.19;;;-1.62;100.00
19600;BME280;9947;57.722;12.012;2023-02-19T03:45:36;100586.50;;;-1.65;100.00
19600;BME280;9947;57.722;12.012;2023-02-19T03:48:22;100595.81;;;-1.81;100.00
19600;BME280;9947;57.722;12.012;2023-02-19T03:51:11;100603.91;;;-1.87;100.00
19600;BME280;9947;57.722;12.012;2023-02-19T03:53:52;100600.66;;;-1.97;100.00
19600;BME280;9947;57.722;12.012;2023-02-19T03:56:27;100594.31;;;-1.91;100.00
19600;BME280;9947;57.722;12.012;2023-02-19T03:59:10;100597.88;;;-1.92;100.00
19600;BME280;9947;57.722;12.012;2023-02-19T04:01:51;100596.19;;;-1.95;100.00
19600;BME280;9947;57.722;12.012;2023-02-19T04:04:23;100599.75;;;-1.65;100.00
19600;BME280;9947;57.722;12.012;2023-02-19T04:07:06;100598.56;;;-1.86;100.00
19600;BME280;9947;57.722;12.012;2023-02-19T04:09:35;100605.78;;;-1.91;100.00
19600;BME280;9947;57.722;12.012;2023-02-19T04:12:10;100603.25;;;-1.95;100.00
19600;BME280;9947;57.722;12.012;2023-02-19T04:14:42;100614.72;;;-1.95;100.00
19600;BME280;9947;57.722;12.012;2023-02-19T04:17:21;100610.16;;;-1.90;100.00
19600;BME280;9947;57.722;12.012;2023-02-19T04:19:51;100615.59;;;-1.94;100.00
19600;BME280;9947;57.722;12.012;2023-02-19T04:22:27;100618.44;;;-1.69;100.00
19600;BME280;9947;57.722;12.012;2023-02-19T04:24:56;100618.44;;;-1.69;100.00
19600;BME280;9947;57.722;12.012;2023-02-19T04:27:30;100619.53;;;-1.76;100.00
19600;BME280;9947;57.722;12.012;2023-02-19T04:29:59;100627.47;;;-1.76;100.00
19600;BME280;9947;57.722;12.012;2023-02-19T04:32:32;100623.91;;;-1.75;100.00
19600;BME280;9947;57.722;12.012;2023-02-19T04:34:59;100630.44;;;-1.89;100.00
19600;BME280;9947;57.722;12.012;2023-02-19T04:37:34;100637.94;;;-1.72;100.00
19600;BME280;9947;57.722;12.012;2023-02-19T04:40:01;100642.25;;;-1.68;100.00
19600;BME280;9947;57.722;12.012;2023-02-19T04:42:34;100645.28;;;-1.81;100.00
19600;BME280;9947;57.722;12.012;2023-02-19T04:45:01;100648.94;;;-1.87;100.00
19600;BME280;9947;57.722;12.012;2023-02-19T04:47:34;100648.03;;;-1.86;100.00
19600;BME280;9947;57.722;12.012;2023-02-19T04:50:01;100650.69;;;-1.86;100.00
19600;BME280;9947;57.722;12.012;2023-02-19T04:52:37;100645.56;;;-1.92;100.00
19600;BME280;9947;57.722;12.012;2023-02-19T04:55:10;100653.81;;;-2.03;100.00
19600;BME280;9947;57.722;12.012;2023-02-19T04:57:43;100661.06;;;-2.11;100.00
19600;BME280;9947;57.722;12.012;2023-02-19T05:00:11;100660.09;;;-2.07;100.00
19600;BME280;9947;57.722;12.012;2023-02-19T05:02:44;100674.22;;;-2.06;100.00
19600;BME280;9947;57.722;12.012;2023-02-19T05:05:12;100666.84;;;-1.95;100.00
19600;BME280;9947;57.722;12.012;2023-02-19T05:07:47;100676.22;;;-1.82;100.00
19600;BME280;9947;57.722;12.012;2023-02-19T05:10:20;100684.13;;;-1.80;100.00
19600;BME280;9947;57.722;12.012;2023-02-19T05:12:55;100694.97;;;-1.59;100.00
19600;BME280;9947;57.722;12.012;2023-02-19T05:15:22;100687.56;;;-1.46;100.00
19600;BME280;9947;57.722;12.012;2023-02-19T05:17:55;100693.06;;;-1.52;100.00
19600;BME280;9947;57.722;12.012;2023-02-19T05:20:30;100686.13;;;-1.58;100.00
19600;BME280;9947;57.722;12.012;2023-02-19T05:23:05;100702.47;;;-1.73;100.00
19600;BME280;9947;57.722;12.012;2023-02-19T05:25:32;100693.88;;;-1.82;100.00
19600;BME280;9947;57.722;12.012;2023-02-19T05:28:05;100692.34;;;-1.91;100.00
19600;BME280;9947;57.722;12.012;2023-02-19T05:30:42;100698.06;;;-1.74;100.00
19600;BME280;9947;57.722;12.012;2023-02-19T05:33:16;100693.84;;;-1.81;100.00
19600;BME280;9947;57.722;12.012;2023-02-19T05:35:45;100700.72;;;-1.74;100.00
19600;BME280;9947;57.722;12.012;2023-02-19T05:38:21;100694.16;;;-1.61;100.00
19600;BME280;9947;57.722;12.012;2023-02-19T05:40:49;100703.81;;;-1.58;100.00
19600;BME280;9947;57.722;12.012;2023-02-19T05:43:22;100706.28;;;-1.50;100.00
19600;BME280;9947;57.722;12.012;2023-02-19T05:45:49;100707.31;;;-1.58;100.00
19600;BME280;9947;57.722;12.012;2023-02-19T05:48:22;100705.03;;;-1.70;100.00
19600;BME280;9947;57.722;12.012;2023-02-19T05:51:00;100712.41;;;-1.82;100.00
19600;BME280;9947;57.722;12.012;2023-02-19T05:53:36;100721.72;;;-2.00;100.00
19600;BME280;9947;57.722;12.012;2023-02-19T05:56:23;100727.84;;;-1.98;100.00
19600;BME280;9947;57.722;12.012;2023-02-19T05:59:00;100726.25;;;-2.04;100.00
19600;BME280;9947;57.722;12.012;2023-02-19T06:01:38;100727.00;;;-1.99;100.00
19600;BME280;9947;57.722;12.012;2023-02-19T06:04:05;100738.28;;;-1.92;100.00
19600;BME280;9947;57.722;12.012;2023-02-19T06:06:40;100747.28;;;-1.98;100.00
19600;BME280;9947;57.722;12.012;2023-02-19T06:09:09;100750.09;;;-2.04;100.00
19600;BME280;9947;57.722;12.012;2023-02-19T06:11:44;100752.84;;;-2.10;100.00
19600;BME280;9947;57.722;12.012;2023-02-19T06:14:12;100745.78;;;-2.09;100.00
19600;BME280;9947;57.722;12.012;2023-02-19T06:16:45;100742.22;;;-2.08;100.00
19600;BME280;9947;57.722;12.012;2023-02-19T06:19:12;100753.44;;;-1.97;100.00
19600;BME280;9947;57.722;12.012;2023-02-19T06:21:48;100748.72;;;-1.86;100.00
19600;BME280;9947;57.722;12.012;2023-02-19T06:24:17;100750.03;;;-1.68;100.00
19600;BME280;9947;57.722;12.012;2023-02-19T06:26:51;100750.81;;;-1.65;100.00
19600;BME280;9947;57.722;12.012;2023-02-19T06:29:18;100748.81;;;-1.55;100.00
19600;BME280;9947;57.722;12.012;2023-02-19T06:31:54;100749.59;;;-1.51;100.00
19600;BME280;9947;57.722;12.012;2023-02-19T06:34:21;100759.38;;;-1.53;100.00
19600;BME280;9947;57.722;12.012;2023-02-19T06:37:01;100764.00;;;-1.62;100.00
19600;BME280;9947;57.722;12.012;2023-02-19T06:39:39;100768.53;;;-1.67;100.00
19600;BME280;9947;57.722;12.012;2023-02-19T06:42:13;100764.31;;;-1.74;100.00
19600;BME280;9947;57.722;12.012;2023-02-19T06:44:40;100770.63;;;-1.78;100.00
19600;BME280;9947;57.722;12.012;2023-02-19T06:47:13;100769.84;;;-1.81;100.00
19600;BME280;9947;57.722;12.012;2023-02-19T06:49:40;100755.75;;;-1.85;100.00
19600;BME280;9947;57.722;12.012;2023-02-19T06:52:13;100761.00;;;-1.82;100.00
19600;BME280;9947;57.722;12.012;2023-02-19T06:54:43;100766.94;;;-1.72;100.00
19600;BME280;9947;57.722;12.012;2023-02-19T06:57:16;100762.66;;;-1.78;100.00
19600;BME280;9947;57.722;12.012;2023-02-19T06:59:44;100770.53;;;-1.75;100.00
19600;BME280;9947;57.722;12.012;2023-02-19T07:02:17;100781.22;;;-1.78;100.00
19600;BME280;9947;57.722;12.012;2023-02-19T07:04:44;100784.81;;;-1.80;100.00
19600;BME280;9947;57.722;12.012;2023-02-19T07:07:17;100783.81;;;-1.76;100.00
19600;BME280;9947;57.722;12.012;2023-02-19T07:09:52;100774.84;;;-1.71;100.00
19600;BME280;9947;57.722;12.012;2023-02-19T07:12:25;100780.03;;;-1.66;100.00
19600;BME280;9947;57.722;12.012;2023-02-19T07:14:58;100784.31;;;-1.62;100.00
19600;BME280;9947;57.722;12.012;2023-02-19T07:17:32;100785.06;;;-1.57;100.00
19600;BME280;9947;57.722;12.012;2023-02-19T07:20:00;100798.28;;;-1.54;100.00
19600;BME280;9947;57.722;12.012;2023-02-19T07:22:34;100798.09;;;-1.48;100.00
19600;BME280;9947;57.722;12.012;2023-02-19T07:25:02;100796.25;;;-1.44;100.00
19600;BME280;9947;57.722;12.012;2023-02-19T07:27:42;100796.19;;;-1.43;100.00
19600;BME280;9947;57.722;12.012;2023-02-19T07:30:10;100801.41;;;-1.40;100.00
19600;BME280;9947;57.722;12.012;2023-02-19T07:32:43;100794.16;;;-1.33;100.00
19600;BME280;9947;57.722;12.012;2023-02-19T07:35:16;100794.56;;;-1.16;100.00
19600;BME280;9947;57.722;12.012;2023-02-19T07:37:52;100802.56;;;-1.17;100.00
19600;BME280;9947;57.722;12.012;2023-02-19T07:40:20;100804.88;;;-1.05;100.00
19600;BME280;9947;57.722;12.012;2023-02-19T07:42:55;100809.91;;;-0.95;100.00
19600;BME280;9947;57.722;12.012;2023-02-19T07:45:21;100806.84;;;-0.81;100.00
19600;BME280;9947;57.722;12.012;2023-02-19T07:47:54;100813.63;;;-0.71;100.00
19600;BME280;9947;57.722;12.012;2023-02-19T07:50:21;100810.66;;;-0.60;100.00
19600;BME280;9947;57.722;12.012;2023-02-19T07:52:54;100800.56;;;-0.47;100.00
19600;BME280;9947;57.722;12.012;2023-02-19T07:55:30;100801.19;;;-0.39;100.00
19600;BME280;9947;57.722;12.012;2023-02-19T07:58:03;100810.69;;;-0.32;100.00
19600;BME280;9947;57.722;12.012;2023-02-19T08:00:30;100823.06;;;-0.31;100.00
19600;BME280;9947;57.722;12.012;2023-02-19T08:03:04;100828.16;;;-0.23;100.00
19600;BME280;9947;57.722;12.012;2023-02-19T08:05:38;100825.50;;;-0.23;100.00
19600;BME280;9947;57.722;12.012;2023-02-19T08:08:15;100822.84;;;-0.23;100.00
19600;BME280;9947;57.722;12.012;2023-02-19T08:10:44;100833.38;;;-0.20;100.00
19600;BME280;9947;57.722;12.012;2023-02-19T08:13:35;100843.94;;;-0.19;100.00
19600;BME280;9947;57.722;12.012;2023-02-19T08:16:11;100844.66;;;-0.14;100.00
19600;BME280;9947;57.722;12.012;2023-02-19T08:18:47;100853.31;;;-0.07;100.00
19600;BME280;9947;57.722;12.012;2023-02-19T08:21:23;100838.69;;;0.08;100.00
19600;BME280;9947;57.722;12.012;2023-02-19T08:23:50;100840.31;;;0.12;100.00
19600;BME280;9947;57.722;12.012;2023-02-19T08:26:25;100838.69;;;0.08;100.00
19600;BME280;9947;57.722;12.012;2023-02-19T08:28:58;100848.09;;;0.18;100.00
19600;BME280;9947;57.722;12.012;2023-02-19T08:31:27;100840.00;;;0.21;100.00
19600;BME280;9947;57.722;12.012;2023-02-19T08:34:00;100841.56;;;0.28;100.00
19600;BME280;9947;57.722;12.012;2023-02-19T08:36:33;100839.56;;;0.35;100.00
19600;BME280;9947;57.722;12.012;2023-02-19T08:39:00;100848.16;;;0.43;100.00
19600;BME280;9947;57.722;12.012;2023-02-19T08:41:42;100859.31;;;0.54;100.00
19600;BME280;9947;57.722;12.012;2023-02-19T08:44:16;100858.19;;;0.61;100.00
19600;BME280;9947;57.722;12.012;2023-02-19T08:46:43;100865.91;;;0.69;100.00
19600;BME280;9947;57.722;12.012;2023-02-19T08:49:16;100867.47;;;0.74;100.00
19600;BME280;9947;57.722;12.012;2023-02-19T08:51:50;100875.06;;;0.86;100.00
19600;BME280;9947;57.722;12.012;2023-02-19T08:54:17;100880.38;;;0.86;100.00
19600;BME280;9947;57.722;12.012;2023-02-19T08:56:52;100871.34;;;0.90;100.00
19600;BME280;9947;57.722;12.012;2023-02-19T08:59:19;100872.88;;;0.98;100.00
19600;BME280;9947;57.722;12.012;2023-02-19T09:01:52;100862.91;;;1.04;100.00
19600;BME280;9947;57.722;12.012;2023-02-19T09:04:26;100862.91;;;1.04;100.00
19600;BME280;9947;57.722;12.012;2023-02-19T09:07:00;100871.41;;;1.14;100.00
19600;BME280;9947;57.722;12.012;2023-02-19T09:09:27;100864.13;;;1.19;100.00
19600;BME280;9947;57.722;12.012;2023-02-19T09:12:07;100867.31;;;1.29;100.00
19600;BME280;9947;57.722;12.012;2023-02-19T09:14:37;100875.75;;;1.41;99.33
19600;BME280;9947;57.722;12.012;2023-02-19T09:17:11;100868.06;;;1.57;98.04
19600;BME280;9947;57.722;12.012;2023-02-19T09:19:41;100870.31;;;1.68;94.83
19600;BME280;9947;57.722;12.012;2023-02-19T09:22:14;100884.03;;;1.80;93.68
19600;BME280;9947;57.722;12.012;2023-02-19T09:24:43;100881.34;;;2.04;91.89
19600;BME280;9947;57.722;12.012;2023-02-19T09:27:18;100885.34;;;2.15;88.76
19600;BME280;9947;57.722;12.012;2023-02-19T09:29:46;100884.59;;;2.34;86.98
19600;BME280;9947;57.722;12.012;2023-02-19T09:32:20;100893.16;;;2.42;85.34
19600;BME280;9947;57.722;12.012;2023-02-19T09:34:47;100891.69;;;2.35;84.46
19600;BME280;9947;57.722;12.012;2023-02-19T09:37:28;100883.72;;;2.55;84.07
19600;BME280;9947;57.722;12.012;2023-02-19T09:39:55;100887.63;;;2.68;85.56
19600;BME280;9947;57.722;12.012;2023-02-19T09:42:31;100884.81;;;2.71;81.50
19600;BME280;9947;57.722;12.012;2023-02-19T09:44:59;100887.97;;;2.81;82.54
19600;BME280;9947;57.722;12.012;2023-02-19T09:47:34;100889.09;;;2.75;82.84
19600;BME280;9947;57.722;12.012;2023-02-19T09:50:05;100894.44;;;2.75;80.63
19600;BME280;9947;57.722;12.012;2023-02-19T09:52:45;100892.22;;;2.65;79.44
19600;BME280;9947;57.722;12.012;2023-02-19T09:55:15;100900.03;;;2.69;79.72
19600;BME280;9947;57.722;12.012;2023-02-19T09:57:51;100908.78;;;2.73;79.93
19600;BME280;9947;57.722;12.012;2023-02-19T10:00:21;100904.31;;;2.73;77.10
19600;BME280;9947;57.722;12.012;2023-02-19T10:03:02;100906.84;;;2.76;77.92
19600;BME280;9947;57.722;12.012;2023-02-19T10:05:30;100924.88;;;2.71;76.97
19600;BME280;9947;57.722;12.012;2023-02-19T10:08:08;100926.72;;;2.69;76.44
19600;BME280;9947;57.722;12.012;2023-02-19T10:10:38;100934.19;;;2.61;76.92
19600;BME280;9947;57.722;12.012;2023-02-19T10:13:18;100931.88;;;2.74;77.24
19600;BME280;9947;57.722;12.012;2023-02-19T10:16:01;100932.00;;;2.71;75.08
19600;BME280;9947;57.722;12.012;2023-02-19T10:18:31;100930.63;;;2.83;75.41
19600;BME280;9947;57.722;12.012;2023-02-19T10:21:11;100930.28;;;2.70;76.63
19600;BME280;9947;57.722;12.012;2023-02-19T10:23:42;100926.00;;;2.66;76.64
19600;BME280;9947;57.722;12.012;2023-02-19T10:26:24;100932.81;;;2.73;76.67
19600;BME280;9947;57.722;12.012;2023-02-19T10:29:02;100927.56;;;2.92;77.71
19600;BME280;9947;57.722;12.012;2023-02-19T10:31:31;100925.97;;;3.08;78.64
19600;BME280;9947;57.722;12.012;2023-02-19T10:34:16;100932.53;;;3.21;80.09
19600;BME280;9947;57.722;12.012;2023-02-19T10:36:46;100920.13;;;3.40;79.29
19600;BME280;9947;57.722;12.012;2023-02-19T10:39:44;100920.44;;;3.53;76.98
19600;BME280;9947;57.722;12.012;2023-02-19T10:42:20;100919.63;;;3.71;77.84
19600;BME280;9947;57.722;12.012;2023-02-19T10:44:52;100928.94;;;3.82;76.79
19600;BME280;9947;57.722;12.012;2023-02-19T10:47:29;100932.63;;;3.79;75.22
19600;BME280;9947;57.722;12.012;2023-02-19T10:50:04;100930.16;;;3.75;73.36
19600;BME280;9947;57.722;12.012;2023-02-19T10:52:37;100920.34;;;3.75;70.43
19600;BME280;9947;57.722;12.012;2023-02-19T10:55:15;100926.41;;;3.79;74.29
19600;BME280;9947;57.722;12.012;2023-02-19T10:57:54;100925.34;;;3.83;70.36
19600;BME280;9947;57.722;12.012;2023-02-19T11:00:24;100929.16;;;3.77;64.19
19600;BME280;9947;57.722;12.012;2023-02-19T11:03:19;100928.28;;;3.77;63.41
19600;BME280;9947;57.722;12.012;2023-02-19T11:06:00;100925.56;;;3.97;63.46
19600;BME280;9947;57.722;12.012;2023-02-19T11:08:49;100917.69;;;4.13;64.54
19600;BME280;9947;57.722;12.012;2023-02-19T11:11:30;100929.78;;;4.21;64.57
19600;BME280;9947;57.722;12.012;2023-02-19T11:14:00;100916.47;;;4.20;67.79
19600;BME280;9947;57.722;12.012;2023-02-19T11:16:41;100911.28;;;4.17;76.42
19600;BME280;9947;57.722;12.012;2023-02-19T11:19:22;100915.81;;;4.15;85.80
19600;BME280;9947;57.722;12.012;2023-02-19T11:21:57;100904.97;;;3.99;88.01
19600;BME280;9947;57.722;12.012;2023-02-19T11:24:29;100895.50;;;3.92;92.16
19600;BME280;9947;57.722;12.012;2023-02-19T11:27:06;100908.50;;;3.99;93.42
19600;BME280;9947;57.722;12.012;2023-02-19T11:29:42;100915.22;;;4.27;94.04
19600;BME280;9947;57.722;12.012;2023-02-19T11:32:23;100917.31;;;4.39;89.45
19600;BME280;9947;57.722;12.012;2023-02-19T11:34:51;100918.25;;;4.38;87.31
19600;BME280;9947;57.722;12.012;2023-02-19T11:37:30;100916.50;;;4.56;89.47
19600;BME280;9947;57.722;12.012;2023-02-19T11:40:04;100910.84;;;4.62;91.93
19600;BME280;9947;57.722;12.012;2023-02-19T11:42:48;100918.72;;;4.65;95.16
19600;BME280;9947;57.722;12.012;2023-02-19T11:45:36;100919.41;;;4.51;100.00
19600;BME280;9947;57.722;12.012;2023-02-19T11:48:34;100907.44;;;4.58;100.00
19600;BME280;9947;57.722;12.012;2023-02-19T11:51:22;100908.88;;;4.29;100.00
19600;BME280;9947;57.722;12.012;2023-02-19T11:54:15;100920.09;;;4.19;100.00
19600;BME280;9947;57.722;12.012;2023-02-19T11:56:48;100913.00;;;3.99;100.00
19600;BME280;9947;57.722;12.012;2023-02-19T11:59:30;100917.09;;;3.87;100.00
19600;BME280;9947;57.722;12.012;2023-02-19T12:02:39;100913.53;;;3.68;100.00
19600;BME280;9947;57.722;12.012;2023-02-19T12:05:39;100907.34;;;3.67;100.00
19600;BME280;9947;57.722;12.012;2023-02-19T12:08:50;100906.56;;;3.64;100.00
19600;BME280;9947;57.722;12.012;2023-02-19T12:11:43;100884.78;;;3.73;100.00
19600;BME280;9947;57.722;12.012;2023-02-19T12:14:46;100886.94;;;3.65;100.00
19600;BME280;9947;57.722;12.012;2023-02-19T12:17:46;100889.88;;;3.59;100.00
19600;BME280;9947;57.722;12.012;2023-02-19T12:20:32;100889.03;;;3.38;100.00
19600;BME280;9947;57.722;12.012;2023-02-19T12:26:19;100885.56;;;3.36;100.00
19600;BME280;9947;57.722;12.012;2023-02-19T12:29:10;100884.13;;;3.29;100.00
19600;BME280;9947;57.722;12.012;2023-02-19T12:31:58;100881.59;;;3.26;100.00
19600;BME280;9947;57.722;12.012;2023-02-19T12:34:49;100886.56;;;3.33;100.00
19600;BME280;9947;57.722;12.012;2023-02-19T12:37:40;100884.03;;;3.51;100.00
19600;BME280;9947;57.722;12.012;2023-02-19T12:40:31;100882.94;;;3.55;100.00
19600;BME280;9947;57.722;12.012;2023-02-19T12:43:12;100877.53;;;3.56;100.00
19600;BME280;9947;57.722;12.012;2023-02-19T12:45:45;100877.91;;;3.28;100.00
19600;BME280;9947;57.722;12.012;2023-02-19T12:48:27;100873.28;;;3.32;100.00
19600;BME280;9947;57.722;12.012;2023-02-19T12:50:59;100875.38;;;3.25;100.00
19600;BME280;9947;57.722;12.012;2023-02-19T12:53:40;100867.63;;;3.19;100.00
19600;BME280;9947;57.722;12.012;2023-02-19T12:56:16;100857.53;;;3.05;100.00
19600;BME280;9947;57.722;12.012;2023-02-19T12:58:53;100846.00;;;3.05;100.00
19600;BME280;9947;57.722;12.012;2023-02-19T13:01:29;100838.47;;;2.94;100.00
19600;BME280;9947;57.722;12.012;2023-02-19T13:04:24;100847.19;;;2.77;100.00
19600;BME280;9947;57.722;12.012;2023-02-19T13:07:02;100851.66;;;2.77;100.00
19600;BME280;9947;57.722;12.012;2023-02-19T13:09:43;100857.25;;;2.71;100.00
19600;BME280;9947;57.722;12.012;2023-02-19T13:12:23;100827.31;;;2.64;100.00
19600;BME280;9947;57.722;12.012;2023-02-19T13:14:56;100817.50;;;2.65;100.00
19600;BME280;9947;57.722;12.012;2023-02-19T13:17:36;100806.28;;;2.77;100.00
19600;BME280;9947;57.722;12.012;2023-02-19T13:20:14;100808.22;;;2.94;100.00
19600;BME280;9947;57.722;12.012;2023-02-19T13:22:59;100803.22;;;2.66;100.00
19600;BME280;9947;57.722;12.012;2023-02-19T13:25:57;100803.81;;;2.72;100.00
19600;BME280;9947;57.722;12.012;2023-02-19T13:28:47;100806.47;;;2.52;100.00
19600;BME280;9947;57.722;12.012;2023-02-19T13:31:51;100808.00;;;2.78;100.00
19600;BME280;9947;57.722;12.012;2023-02-19T13:34:34;100815.66;;;2.45;100.00
19600;BME280;9947;57.722;12.012;2023-02-19T13:37:12;100817.63;;;2.62;100.00